Stevens Point, WI (54481)

1:51 PM CST on December 05, 2016 (GMT -0600)
2nd Street North | | Change Station

Elev 1115 ft 44.54 °N, 89.59 °W | Updated 34 seconds ago

Overcast
Overcast
34.2 °F
Feels Like 34 °F
N
0.6
Wind Variable Wind from WSW
Gusts 1.9 mph

Today
High -- | Low -- °F
--% Chance of Precip.
Yesterday
High -- | Low -- °F
Precip. -- in
Pressure 29.86 in
Visibility 4.0 miles
Clouds Overcast 500 ft
Windchill 34 °F
Dew Point 31 °F
Humidity 88%
Rainfall 0.00 in
Snow Depth Not available.
7:19 AM 4:18 PM
Waxing Crescent, 34% visible
METAR KSTE 051935Z AUTO 14009KT 4SM BR OVC005 00/00 A2986 RMK AO2 T10031003
Pressure 29.86 in
Visibility 4.0 miles
Clouds Overcast 500 ft
Windchill 34 °F
Dew Point 31 °F
Humidity 88%
Rainfall 0.00 in
Snow Depth Not available.
7:19 AM 4:18 PM
Waxing Crescent, 34% visible
METAR KSTE 051935Z AUTO 14009KT 4SM BR OVC005 00/00 A2986 RMK AO2 T10031003

10-Day Weather Forecast

Almanac

Astronomy

Dec. 05, 2016 Rise Set
Actual Time
Civil Twilight
Nautical Twilight
Astronomical Twilight
Moon
Length of Visible Light
Length of Day
Tomorrow will be .
, % of the Moon is Illuminated

Today's Extremes

State Highs State Lows

Community

WunderPhotos

Upload Photos

1,955,845 photos uploaded!

WunderBlog® & News

Nearby

Air Quality

  Air Quality AQ Index Pollutant
Not available.

Snow Depth

Station Depth Elevation

Earthquake Activity

City Distance Mag. Time & Date
Minimum magnitude displayed is 2.5.

Coastal Water Temperatures

Place Temperature

Stations

Nearby Weather Stations

Station Location Temp. Windchill Dew Point Humidity Wind Precip. Elev Updated Type
                   

Watches & Warnings

There are currently no watches in effect.